Time;durP1;ratioP1;P1;durP2;ratioP2;P2;SDS_P1;SDS_P2;PMS_P1;PMS_P2;Temp;Humidity;BMP_temperature;BMP_pressure;BME280_temperature;BME280_humidity;BME280_pressure;Samples;Min_cycle;Max_cycle;Signal;HPM_P1;HPM_P2
2021/10/24 00:02:14;;;;;;;14.68;7.20;;;;;;;11.07;61.57;101910.94;5074317;28;20049;-65
2021/10/24 00:04:41;;;;;;;13.38;7.07;;;;;;;10.98;62.04;101912.66;5076003;28;20415;-65
2021/10/24 00:07:09;;;;;;;13.35;7.25;;;;;;;11.05;62.16;101910.41;5073979;28;20380;-65
2021/10/24 00:09:37;;;;;;;14.63;7.45;;;;;;;11.08;61.80;101907.88;5075641;28;20063;-66
2021/10/24 00:12:05;;;;;;;13.25;7.28;;;;;;;10.99;61.91;101906.84;5057543;28;20484;-65
2021/10/24 00:14:32;;;;;;;12.88;7.00;;;;;;;11.06;61.85;101912.84;5073846;28;20659;-65
2021/10/24 00:16:59;;;;;;;13.52;7.20;;;;;;;10.65;63.40;101921.69;5074149;28;20045;-65
2021/10/24 00:19:27;;;;;;;18.95;7.30;;;;;;;10.73;63.00;101901.78;5057506;28;20048;-65
2021/10/24 00:21:55;;;;;;;14.15;6.63;;;;;;;10.72;63.34;101906.47;5073638;28;20056;-66
2021/10/24 00:24:22;;;;;;;14.02;6.78;;;;;;;10.96;62.73;101910.19;5075090;28;20146;-66
2021/10/24 00:26:50;;;;;;;14.95;6.63;;;;;;;10.46;63.96;101898.66;5075210;28;20048;-68
2021/10/24 00:29:17;;;;;;;14.18;6.80;;;;;;;10.55;63.70;101900.53;5073813;28;20056;-66
2021/10/24 00:31:44;;;;;;;12.60;6.20;;;;;;;10.94;62.98;101901.38;5075119;28;20230;-68
2021/10/24 00:34:15;;;;;;;14.75;6.95;;;;;;;11.04;62.36;101898.53;5075161;28;20060;-68
2021/10/24 00:36:43;;;;;;;12.40;6.30;;;;;;;10.91;62.71;101896.41;5075556;28;20044;-65
2021/10/24 00:39:10;;;;;;;12.82;7.30;;;;;;;10.69;62.97;101900.72;5050638;28;20049;-68
2021/10/24 00:41:38;;;;;;;12.95;7.13;;;;;;;10.62;63.50;101897.44;5035307;28;20057;-66
2021/10/24 00:44:41;;;;;;;11.88;6.90;;;;;;;10.46;64.16;101898.66;5045594;28;20397;-66
2021/10/24 00:47:09;;;;;;;13.13;6.70;;;;;;;10.23;64.69;101897.41;5052139;28;20064;-67
2021/10/24 00:49:36;;;;;;;17.33;7.20;;;;;;;10.22;65.17;101892.19;5049517;28;20060;-66
2021/10/24 00:52:05;;;;;;;12.43;7.03;;;;;;;10.40;64.85;101902.53;5054985;28;20057;-66
2021/10/24 00:54:33;;;;;;;15.95;7.45;;;;;;;10.54;64.43;101896.13;5052862;28;20061;-67
2021/10/24 00:57:02;;;;;;;16.42;7.10;;;;;;;10.50;64.35;101896.97;5053764;28;20044;-67
2021/10/24 00:59:29;;;;;;;13.95;7.03;;;;;;;10.65;64.03;101892.19;5054126;28;20049;-66
2021/10/24 01:01:57;;;;;;;15.15;7.47;;;;;;;10.65;63.98;101888.63;5053853;28;20076;-67
2021/10/24 01:04:25;;;;;;;14.15;6.95;;;;;;;10.26;65.06;101885.81;5053655;28;20060;-66
2021/10/24 01:06:54;;;;;;;14.90;7.43;;;;;;;10.43;64.88;101886.28;5054961;28;20048;-68
2021/10/24 01:09:25;;;;;;;12.93;7.53;;;;;;;10.50;64.59;101891.47;5053819;28;20053;-67
2021/10/24 01:11:52;;;;;;;15.05;8.30;;;;;;;10.44;64.61;101882.44;5037413;28;20056;-66
2021/10/24 01:14:20;;;;;;;15.32;8.25;;;;;;;10.33;64.93;101886.31;5054737;28;20077;-66
2021/10/24 01:16:51;;;;;;;15.02;8.25;;;;;;;10.56;64.80;101874.63;5053519;28;20080;-65
2021/10/24 01:19:20;;;;;;;14.88;7.72;;;;;;;10.61;64.51;101880.09;5037726;28;20176;-66
2021/10/24 01:21:48;;;;;;;13.13;7.75;;;;;;;10.68;64.23;101874.28;5053676;28;20513;-66
2021/10/24 01:24:16;;;;;;;13.48;8.02;;;;;;;10.40;65.11;101881.34;5053050;28;20041;-66
2021/10/24 01:26:43;;;;;;;12.23;8.45;;;;;;;10.51;64.57;101871.09;5053565;28;20053;-66
2021/10/24 01:29:12;;;;;;;17.42;8.88;;;;;;;10.22;65.35;101873.72;5053831;28;20377;-66
2021/10/24 01:31:41;;;;;;;13.88;8.75;;;;;;;10.03;66.22;101876.25;5037357;28;20060;-66
2021/10/24 01:34:10;;;;;;;14.00;8.18;;;;;;;10.19;66.04;101860.50;5052674;28;20064;-66
2021/10/24 01:36:40;;;;;;;15.80;8.75;;;;;;;9.93;66.66;101859.78;5053597;28;20057;-66
2021/10/24 01:39:08;;;;;;;18.50;9.07;;;;;;;9.78;67.26;101859.03;5060967;28;20428;-66
2021/10/24 01:41:35;;;;;;;23.48;15.57;;;;;;;10.07;66.91;101854.50;5077415;28;20463;-66
2021/10/24 01:44:04;;;;;;;17.83;9.68;;;;;;;10.07;66.66;101852.56;5077117;28;20048;-66
2021/10/24 01:46:32;;;;;;;13.30;9.07;;;;;;;9.82;67.35;101844.41;5076747;28;20098;-66
2021/10/24 01:49:00;;;;;;;15.65;9.10;;;;;;;10.00;67.43;101848.47;5076343;28;20044;-66
2021/10/24 01:51:27;;;;;;;19.60;9.57;;;;;;;10.19;66.45;101844.00;5060606;28;20044;-66
2021/10/24 01:53:55;;;;;;;17.27;9.13;;;;;;;10.08;66.77;101847.88;5076840;28;20511;-66
2021/10/24 01:56:23;;;;;;;13.68;8.85;;;;;;;10.26;66.27;101833.50;5076927;28;20051;-65
2021/10/24 01:58:50;;;;;;;18.33;9.43;;;;;;;9.89;66.67;101831.16;5060009;28;20518;-67
2021/10/24 02:01:19;;;;;;;15.00;9.18;;;;;;;9.81;67.54;101823.50;5076751;28;20077;-66
2021/10/24 02:04:01;;;;;;;15.18;8.77;;;;;;;9.85;67.28;101826.53;5061847;28;20048;-67
2021/10/24 02:06:42;;;;;;;14.98;8.82;;;;;;;9.52;68.17;101819.75;5062276;28;20053;-66
2021/10/24 02:09:09;;;;;;;21.38;9.70;;;;;;;9.66;68.16;101812.53;5076540;28;20059;-66
2021/10/24 02:11:37;;;;;;;16.88;9.15;;;;;;;9.62;68.25;101807.91;5060159;28;20056;-66
2021/10/24 02:14:04;;;;;;;17.70;9.15;;;;;;;9.77;67.68;101816.91;5043437;28;20419;-66
2021/10/24 02:16:38;;;;;;;15.00;8.95;;;;;;;9.69;67.44;101806.47;5076391;28;20052;-65
2021/10/24 02:19:05;;;;;;;14.73;9.32;;;;;;;9.42;68.31;101803.28;5077671;28;20052;-66
2021/10/24 02:21:33;;;;;;;16.70;9.45;;;;;;;9.66;67.89;101798.00;5059933;28;20049;-67
2021/10/24 02:24:01;;;;;;;14.35;8.98;;;;;;;9.66;67.88;101793.28;5075624;28;20051;-66
2021/10/24 02:26:29;;;;;;;17.33;9.07;;;;;;;9.57;68.02;101794.16;5076540;28;20052;-66
2021/10/24 02:28:57;;;;;;;16.95;9.40;;;;;;;9.41;68.50;101789.81;5076640;28;20052;-67
2021/10/24 02:31:24;;;;;;;14.07;8.80;;;;;;;9.64;68.32;101787.25;5076418;28;20052;-66
2021/10/24 02:34:23;;;;;;;17.90;9.57;;;;;;;9.59;67.92;101792.75;5075776;28;20064;-66
2021/10/24 02:37:15;;;;;;;16.58;9.45;;;;;;;9.39;68.55;101795.59;5077592;28;20049;-66
2021/10/24 02:39:42;;;;;;;15.00;8.88;;;;;;;9.42;68.30;101777.69;5065205;28;20053;-66
2021/10/24 02:42:10;;;;;;;12.93;8.23;;;;;;;9.40;68.64;101782.66;5056232;28;20057;-66
2021/10/24 02:44:37;;;;;;;15.30;8.18;;;;;;;9.46;68.51;101778.78;5054801;28;20059;-67
2021/10/24 02:47:05;;;;;;;15.77;8.18;;;;;;;9.47;68.05;101777.69;5056162;28;20052;-66
2021/10/24 02:49:33;;;;;;;16.33;8.32;;;;;;;9.77;67.51;101772.91;5039138;28;20061;-66
2021/10/24 02:52:02;;;;;;;16.65;8.48;;;;;;;9.98;66.83;101779.94;5056010;28;20071;-65
2021/10/24 02:54:32;;;;;;;19.20;8.07;;;;;;;9.92;66.54;101772.00;5055135;28;20064;-65
2021/10/24 02:57:02;;;;;;;18.33;8.55;;;;;;;9.76;66.72;101775.94;5056016;28;20056;-66
2021/10/24 02:59:29;;;;;;;17.48;8.68;;;;;;;9.34;68.02;101764.53;5055789;28;20400;-66
2021/10/24 03:01:57;;;;;;;15.52;8.70;;;;;;;9.38;68.29;101765.63;5055909;28;20060;-65
2021/10/24 03:04:25;;;;;;;15.80;8.70;;;;;;;9.13;68.74;101761.81;5054979;28;20060;-66
2021/10/24 03:06:52;;;;;;;12.30;7.60;;;;;;;9.26;68.47;101756.88;5055682;28;20501;-66
2021/10/24 03:09:20;;;;;;;16.45;8.70;;;;;;;9.20;69.12;101758.81;5055504;28;20059;-67
2021/10/24 03:11:47;;;;;;;16.23;8.85;;;;;;;9.19;69.00;101759.91;5055700;28;20053;-66
2021/10/24 03:14:16;;;;;;;15.82;8.57;;;;;;;8.98;69.46;101769.28;5038856;28;20511;-66
2021/10/24 03:16:44;;;;;;;13.60;7.93;;;;;;;9.24;69.00;101759.06;5039442;28;20049;-66
2021/10/24 03:19:12;;;;;;;14.23;8.10;;;;;;;9.43;68.18;101758.16;5055289;28;20045;-66
2021/10/24 03:21:45;;;;;;;14.07;8.30;;;;;;;9.27;68.25;101758.50;5055581;28;20060;-67
2021/10/24 03:24:13;;;;;;;14.10;7.70;;;;;;;9.42;67.92;101758.44;5054958;28;20065;-66
2021/10/24 03:26:40;;;;;;;15.15;8.40;;;;;;;9.39;68.25;101756.28;5055290;28;20147;-67
2021/10/24 03:29:11;;;;;;;15.18;8.85;;;;;;;9.21;68.28;101756.88;5039253;28;20048;-66
2021/10/24 03:31:38;;;;;;;14.98;8.20;;;;;;;8.90;68.76;101754.19;5055369;28;20500;-66
2021/10/24 03:34:06;;;;;;;17.20;8.35;;;;;;;8.88;69.48;101759.16;5054932;28;20618;-66
2021/10/24 03:36:34;;;;;;;16.38;8.18;;;;;;;9.14;69.17;101757.16;5055386;28;20053;-66
2021/10/24 03:39:03;;;;;;;15.32;7.72;;;;;;;9.08;68.78;101750.84;5060503;28;20040;-64
2021/10/24 03:41:31;;;;;;;14.82;8.23;;;;;;;9.19;68.79;101750.84;5075408;28;20052;-66
2021/10/24 03:43:58;;;;;;;12.88;8.45;;;;;;;9.23;68.33;101758.25;5076349;28;20045;-67
2021/10/24 03:46:26;;;;;;;15.02;8.13;;;;;;;9.12;68.66;101753.88;5074205;28;20049;-67
2021/10/24 03:48:53;;;;;;;12.15;7.63;;;;;;;9.32;68.35;101761.25;5074718;28;20423;-67
2021/10/24 03:51:20;;;;;;;15.27;8.30;;;;;;;9.09;68.23;101766.25;5058504;28;20427;-65
2021/10/24 03:53:49;;;;;;;12.88;7.60;;;;;;;9.19;68.50;101781.88;5074651;28;20055;-67
2021/10/24 03:56:16;;;;;;;11.75;7.47;;;;;;;9.13;68.35;101773.94;5076049;28;20044;-66
2021/10/24 03:58:44;;;;;;;13.77;7.45;;;;;;;9.10;68.61;101773.38;5057626;28;20049;-65
2021/10/24 04:01:14;;;;;;;18.48;8.00;;;;;;;9.23;67.95;101774.75;5074244;28;20529;-65
2021/10/24 04:03:42;;;;;;;13.48;7.65;;;;;;;9.23;67.93;101776.66;5073194;28;20052;-65
2021/10/24 04:06:09;;;;;;;14.65;7.70;;;;;;;9.53;66.92;101782.91;5074229;28;20049;-65
2021/10/24 04:08:37;;;;;;;14.00;7.72;;;;;;;9.46;66.75;101785.13;5075593;28;20052;-65
2021/10/24 04:11:05;;;;;;;15.15;7.47;;;;;;;9.53;66.80;101785.66;5074435;28;20496;-65
2021/10/24 04:13:33;;;;;;;14.05;7.85;;;;;;;9.65;66.37;101777.91;5075855;28;20076;-65
2021/10/24 04:16:01;;;;;;;16.20;7.45;;;;;;;9.62;66.62;101789.47;5073827;28;20131;-67
2021/10/24 04:18:51;;;;;;;;;;;;;;;9.67;66.34;101792.19;5075671;28;20047;-66
2021/10/24 04:21:19;;;;;;;12.82;7.43;;;;;;;9.45;66.59;101790.91;5073313;28;20332;-65
2021/10/24 04:23:49;;;;;;;11.88;7.32;;;;;;;9.53;66.63;101784.81;5074054;28;20048;-65
2021/10/24 04:26:16;;;;;;;14.43;7.95;;;;;;;9.41;67.03;101787.06;5073901;28;20059;-66
2021/10/24 04:28:44;;;;;;;15.80;7.45;;;;;;;9.28;67.33;101784.88;5073503;28;20044;-65
2021/10/24 04:31:11;;;;;;;11.35;7.10;;;;;;;9.17;68.05;101783.28;5074995;28;20071;-65
2021/10/24 04:33:38;;;;;;;10.65;6.70;;;;;;;9.30;67.23;101778.03;5073782;28;20425;-65
2021/10/24 04:36:05;;;;;;;13.57;7.70;;;;;;;9.22;67.79;101780.53;5074910;28;20053;-66
2021/10/24 04:38:33;;;;;;;13.18;6.97;;;;;;;9.34;67.36;101781.88;5072118;28;20049;-66
2021/10/24 04:41:00;;;;;;;15.82;7.78;;;;;;;9.49;66.54;101775.47;5037215;28;20080;-66
2021/10/24 04:43:28;;;;;;;12.10;7.28;;;;;;;9.46;67.12;101771.38;5053576;28;20049;-66
2021/10/24 04:45:55;;;;;;;14.63;7.88;;;;;;;9.76;66.37;101767.69;5040626;28;20045;-65
2021/10/24 04:48:24;;;;;;;11.38;7.70;;;;;;;9.43;66.47;101771.13;5053248;28;20041;-65
2021/10/24 04:50:51;;;;;;;11.68;7.13;;;;;;;9.41;66.46;101773.31;5069999;28;20049;-65
2021/10/24 04:53:20;;;;;;;14.32;7.90;;;;;;;9.24;67.13;101768.13;5053596;28;20044;-65
2021/10/24 04:55:51;;;;;;;13.45;7.57;;;;;;;9.22;67.48;101772.28;5053508;28;20638;-65
2021/10/24 04:58:18;;;;;;;12.73;8.23;;;;;;;9.27;67.33;101767.59;5054739;28;20052;-65
2021/10/24 05:00:46;;;;;;;13.98;7.60;;;;;;;9.18;67.67;101768.41;5053429;28;20057;-65
2021/10/24 05:03:15;;;;;;;11.45;7.47;;;;;;;8.95;68.03;101769.84;5053390;28;20053;-66
2021/10/24 05:05:44;;;;;;;14.32;8.80;;;;;;;8.41;69.96;101771.50;5054509;28;20044;-69
2021/10/24 05:08:12;;;;;;;14.43;7.82;;;;;;;8.36;70.39;101769.59;5053310;28;20080;-65
2021/10/24 05:10:41;;;;;;;14.07;8.65;;;;;;;8.55;70.08;101776.19;5036056;28;20083;-66
2021/10/24 05:13:09;;;;;;;15.13;7.82;;;;;;;8.92;69.42;101771.22;5053071;28;20171;-66
2021/10/24 05:15:37;;;;;;;12.52;8.02;;;;;;;8.76;69.64;101766.00;5055069;28;20416;-66
2021/10/24 05:18:07;;;;;;;15.85;8.40;;;;;;;8.58;69.56;101769.31;5057311;28;20044;-65
2021/10/24 05:20:36;;;;;;;13.55;8.35;;;;;;;8.56;70.55;101760.53;5057302;28;20053;-65
2021/10/24 05:23:05;;;;;;;12.90;7.97;;;;;;;8.77;69.70;101765.72;5057356;28;20079;-65
2021/10/24 05:25:52;;;;;;;16.45;8.27;;;;;;;8.98;69.11;101756.38;5057082;28;20049;-66
2021/10/24 05:28:20;;;;;;;18.52;8.13;;;;;;;8.98;68.45;101756.38;5057273;28;20040;-66
2021/10/24 05:30:49;;;;;;;12.88;7.45;;;;;;;8.80;69.29;101756.13;5057198;28;20045;-66
2021/10/24 05:33:16;;;;;;;15.82;8.18;;;;;;;8.54;70.00;101754.50;5058360;28;20068;-66
2021/10/24 05:36:02;;;;;;;14.18;7.97;;;;;;;8.82;69.50;101760.22;5057188;28;20509;-66
2021/10/24 05:38:30;;;;;;;11.00;7.45;;;;;;;8.92;68.92;101752.00;5057826;28;20416;-66
2021/10/24 05:41:03;;;;;;;12.13;6.90;;;;;;;8.68;69.34;101752.84;5077678;28;20403;-67
2021/10/24 05:43:31;;;;;;;13.20;7.50;;;;;;;8.59;69.54;101749.00;5061447;28;20048;-65
2021/10/24 05:45:59;;;;;;;12.07;7.03;;;;;;;8.79;68.56;101755.31;5076837;28;20044;-65
2021/10/24 05:48:26;;;;;;;11.90;6.53;;;;;;;8.83;68.71;101748.16;5077256;28;20056;-67
2021/10/24 05:51:00;;;;;;;12.52;7.22;;;;;;;8.85;68.56;101754.22;5062019;28;20048;-67
2021/10/24 05:53:29;;;;;;;10.73;7.15;;;;;;;8.83;68.53;101739.91;5078485;28;20040;-66
2021/10/24 05:55:57;;;;;;;14.23;7.43;;;;;;;8.80;68.79;101745.94;5060531;28;20074;-66
2021/10/24 05:58:27;;;;;;;11.13;7.37;;;;;;;8.82;68.44;101732.75;5076388;28;20056;-66
2021/10/24 06:01:13;;;;;;;13.55;7.40;;;;;;;8.74;68.68;101738.81;5077107;28;20380;-66
2021/10/24 06:04:13;;;;;;;12.60;7.47;;;;;;;8.52;69.22;101735.56;5077428;28;20056;-66
2021/10/24 06:06:58;;;;;;;13.38;8.02;;;;;;;8.45;69.75;101743.25;5078085;28;20049;-66
2021/10/24 06:09:39;;;;;;;14.68;7.15;;;;;;;8.44;69.94;101744.31;5075564;28;20060;-66
2021/10/24 06:12:13;;;;;;;12.75;7.88;;;;;;;8.19;70.70;101744.28;5075383;28;20060;-65
2021/10/24 06:14:41;;;;;;;14.50;7.30;;;;;;;8.57;69.84;101740.22;5076613;28;20059;-65
2021/10/24 06:17:09;;;;;;;13.68;7.22;;;;;;;8.64;69.35;101738.00;5076562;28;20166;-66
2021/10/24 06:19:36;;;;;;;13.30;7.47;;;;;;;8.54;69.35;101740.78;5058647;28;20048;-66
2021/10/24 06:22:04;;;;;;;15.77;7.63;;;;;;;8.52;69.61;101737.47;5075401;28;20048;-65
2021/10/24 06:24:35;;;;;;;13.35;7.28;;;;;;;8.62;68.85;101743.78;5058686;28;20052;-65
2021/10/24 06:27:04;;;;;;;14.02;7.80;;;;;;;8.88;68.39;101726.16;5074724;28;20060;-65
2021/10/24 06:29:32;;;;;;;12.88;7.80;;;;;;;8.68;68.73;101728.13;5076439;28;20041;-65
2021/10/24 06:32:02;;;;;;;14.40;7.85;;;;;;;8.76;68.38;101725.66;5075178;28;20048;-66
2021/10/24 06:34:32;;;;;;;14.93;7.43;;;;;;;8.68;68.75;101725.38;5075078;28;20060;-65
2021/10/24 06:37:22;;;;;;;11.50;7.72;;;;;;;8.56;69.51;101728.41;5061516;28;20056;-67
2021/10/24 06:39:54;;;;;;;11.98;7.05;;;;;;;8.85;68.93;101715.75;5061520;28;20416;-65
2021/10/24 06:42:22;;;;;;;13.05;7.50;;;;;;;8.90;67.98;101718.47;5038320;28;20068;-66
2021/10/24 06:45:27;;;;;;;16.02;7.40;;;;;;;8.46;69.28;101722.91;5047908;28;20689;-66
2021/10/24 06:48:14;;;;;;;10.77;7.40;;;;;;;8.37;69.36;101721.81;5056068;28;20044;-66
2021/10/24 06:51:20;;;;;;;14.30;7.82;;;;;;;8.56;69.63;101724.84;5046147;28;20052;-66
2021/10/24 06:53:53;;;;;;;12.05;7.47;;;;;;;8.63;68.80;101739.13;5054240;28;20053;-66
2021/10/24 06:56:39;;;;;;;10.63;7.32;;;;;;;8.48;69.07;101733.63;5056038;28;20049;-66
2021/10/24 06:59:26;;;;;;;10.60;6.88;;;;;;;8.49;69.52;101724.31;5054848;28;20048;-66
2021/10/24 07:02:20;;;;;;;12.18;7.88;;;;;;;8.20;70.38;101728.63;5042461;28;20065;-65
2021/10/24 07:05:21;;;;;;;13.05;7.40;;;;;;;8.35;70.22;101720.47;5043123;28;20057;-66
2021/10/24 07:07:57;;;;;;;13.68;7.88;;;;;;;8.47;69.92;101726.50;5000273;28;1133682;-66
2021/10/24 07:10:25;;;;;;;16.23;7.90;;;;;;;8.24;70.39;101729.78;5035241;28;20050;-66
2021/10/24 07:12:55;;;;;;;11.25;7.15;;;;;;;8.62;69.51;101724.56;5052271;28;20046;-66
2021/10/24 07:15:26;;;;;;;10.75;7.22;;;;;;;8.46;69.59;101727.56;5038547;28;20057;-65
2021/10/24 07:17:56;;;;;;;10.45;7.00;;;;;;;8.32;70.19;101727.31;5055610;28;20045;-66
2021/10/24 07:20:24;;;;;;;12.63;7.18;;;;;;;8.51;69.85;101731.16;5037951;28;20052;-65
2021/10/24 07:22:55;;;;;;;12.00;6.78;;;;;;;8.46;69.16;101724.81;5056492;28;20072;-66
2021/10/24 07:25:25;;;;;;;14.57;6.75;;;;;;;8.43;69.42;101723.47;5055055;28;20063;-65
2021/10/24 07:27:52;;;;;;;12.20;7.00;;;;;;;8.43;69.54;101723.47;5056344;28;20396;-65
2021/10/24 07:30:21;;;;;;;12.82;6.10;;;;;;;8.61;69.00;101727.59;5055938;28;20056;-66
2021/10/24 07:32:54;;;;;;;10.68;6.38;;;;;;;8.36;69.61;101716.59;5055194;28;20515;-66
2021/10/24 07:35:22;;;;;;;11.18;6.68;;;;;;;8.62;69.63;101719.06;5055272;28;20040;-65
2021/10/24 07:37:50;;;;;;;10.95;6.80;;;;;;;8.59;69.15;101716.88;5064815;28;20045;-66
2021/10/24 07:40:18;;;;;;;13.60;6.30;;;;;;;8.37;70.00;101723.75;5053799;28;20040;-65
2021/10/24 07:42:45;;;;;;;14.20;6.70;;;;;;;7.88;71.38;101721.44;5062736;28;20052;-65
2021/10/24 07:45:13;;;;;;;10.80;6.93;;;;;;;7.92;71.91;101717.06;5044240;28;20053;-67
2021/10/24 07:47:43;;;;;;;10.20;7.13;;;;;;;7.99;71.63;101717.63;5033960;28;20045;-65
2021/10/24 07:50:11;;;;;;;12.18;7.20;;;;;;;8.41;70.64;101720.19;5038800;28;20222;-66
2021/10/24 07:52:42;;;;;;;12.88;6.75;;;;;;;8.33;71.19;101708.91;5053943;28;20049;-66
2021/10/24 07:55:31;;;;;;;10.07;6.30;;;;;;;8.35;70.22;101713.03;5062925;28;20045;-65
2021/10/24 07:57:59;;;;;;;12.30;6.80;;;;;;;8.00;71.27;101708.31;5053789;28;20052;-65
2021/10/24 08:00:30;;;;;;;;;;;;;;;7.93;71.58;101710.47;5044647;28;20049;-65
2021/10/24 08:02:58;;;;;;;11.02;6.55;;;;;;;8.26;71.36;101714.69;5054055;28;19933;-64
2021/10/24 08:05:26;;;;;;;13.95;7.38;;;;;;;8.36;70.75;101700.97;5039401;28;20098;-65
2021/10/24 08:07:53;;;;;;;16.85;11.35;;;;;;;8.35;70.77;101703.97;5055090;28;20064;-65
2021/10/24 08:10:20;;;;;;;10.90;6.80;;;;;;;8.26;70.75;101705.63;5068692;28;20064;-66
2021/10/24 08:12:48;;;;;;;15.05;7.30;;;;;;;8.29;70.99;101696.84;5051776;28;20060;-65
2021/10/24 08:15:16;;;;;;;12.65;7.28;;;;;;;8.37;70.91;101705.34;5036613;28;20053;-66
2021/10/24 08:17:48;;;;;;;9.90;6.30;;;;;;;8.49;70.55;101702.34;5034550;28;20060;-70
2021/10/24 08:20:34;;;;;;;12.73;7.20;;;;;;;8.50;69.83;101703.97;5041878;28;20045;-68
2021/10/24 08:23:02;;;;;;;12.10;7.13;;;;;;;8.46;69.85;101703.69;5034382;28;20064;-67
2021/10/24 08:25:32;;;;;;;14.00;7.15;;;;;;;8.56;69.80;101711.91;5048477;28;20053;-68
2021/10/24 08:28:01;;;;;;;12.88;6.53;;;;;;;8.61;69.84;101717.41;5069340;28;20607;-68
2021/10/24 08:30:50;;;;;;;12.00;6.55;;;;;;;8.73;69.85;101711.66;5055081;28;20560;-68
2021/10/24 08:33:29;;;;;;;14.10;7.05;;;;;;;8.98;68.96;101720.66;5048416;28;20400;-69
2021/10/24 08:36:01;;;;;;;13.30;7.17;;;;;;;8.90;68.72;101718.47;5054531;28;20048;-68
2021/10/24 08:38:30;;;;;;;15.90;6.75;;;;;;;8.95;67.98;101710.22;5058932;28;20063;-69
2021/10/24 08:40:58;;;;;;;13.35;7.60;;;;;;;8.95;67.91;101710.22;5049780;28;20056;-69
2021/10/24 08:43:29;;;;;;;16.65;7.68;;;;;;;8.87;68.46;101708.03;5054322;28;20049;-69
2021/10/24 08:45:58;;;;;;;15.10;8.35;;;;;;;9.21;67.54;101712.88;5065733;28;20052;-69
2021/10/24 08:48:25;;;;;;;11.55;6.78;;;;;;;9.25;67.93;101713.97;5058235;28;20063;-66
2021/10/24 08:50:53;;;;;;;15.35;7.00;;;;;;;9.49;66.83;101707.56;5056324;28;20056;-68
2021/10/24 08:53:27;;;;;;;13.02;6.70;;;;;;;9.60;66.43;101702.81;5052231;28;20041;-65
2021/10/24 08:55:55;;;;;;;13.00;6.70;;;;;;;9.74;66.07;101704.69;5053911;28;20056;-67
2021/10/24 08:58:22;;;;;;;11.80;6.55;;;;;;;9.95;64.75;101702.63;5053743;28;20345;-65
2021/10/24 09:00:50;;;;;;;13.38;6.57;;;;;;;9.98;64.78;101700.13;5047281;28;20056;-67
2021/10/24 09:03:18;;;;;;;13.15;6.82;;;;;;;9.77;65.24;101695.84;5053049;28;20041;-66
2021/10/24 09:05:47;;;;;;;12.55;6.90;;;;;;;9.79;65.21;101688.16;5052106;28;20538;-65
2021/10/24 09:08:17;;;;;;;12.73;6.50;;;;;;;9.74;65.11;101679.94;5049622;28;20049;-67
2021/10/24 09:10:54;;;;;;;11.05;6.35;;;;;;;9.61;65.67;101675.03;5035625;28;20053;-68
2021/10/24 09:13:24;;;;;;;11.88;6.93;;;;;;;9.66;65.96;101668.69;5051655;28;20053;-67
2021/10/24 09:16:03;;;;;;;13.32;6.50;;;;;;;9.70;65.91;101672.50;5053148;28;20629;-67
2021/10/24 09:18:39;;;;;;;11.20;6.28;;;;;;;10.02;65.00;101670.09;5048100;28;20053;-68
2021/10/24 09:21:16;;;;;;;12.10;6.60;;;;;;;10.08;64.79;101667.03;5028842;28;20041;-67
2021/10/24 09:24:10;;;;;;;10.27;5.93;;;;;;;10.15;64.31;101670.28;5052662;28;20067;-69
2021/10/24 09:26:39;;;;;;;11.48;6.55;;;;;;;9.74;65.54;101659.84;5050967;28;20052;-68
2021/10/24 09:29:16;;;;;;;12.20;6.63;;;;;;;10.02;64.93;101648.88;5051824;28;20507;-68
2021/10/24 09:31:49;;;;;;;13.63;6.75;;;;;;;9.91;64.89;101657.50;5052844;28;20048;-68
2021/10/24 09:34:22;;;;;;;12.65;7.32;;;;;;;9.61;66.27;101661.28;5051709;28;20060;-67
2021/10/24 09:37:00;;;;;;;11.90;7.38;;;;;;;9.53;66.63;101667.38;5034015;28;20045;-67
2021/10/24 09:39:43;;;;;;;11.23;7.28;;;;;;;9.68;66.98;101663.72;5059876;28;20905;-68
2021/10/24 09:42:19;;;;;;;14.30;7.63;;;;;;;9.93;65.71;101666.31;5053267;28;20052;-67
2021/10/24 09:45:09;;;;;;;14.93;8.10;;;;;;;9.98;65.65;101674.53;5051023;28;20057;-67
2021/10/24 09:47:48;;;;;;;12.98;8.45;;;;;;;10.00;66.30;101672.31;5049702;28;20057;-69
2021/10/24 09:50:32;;;;;;;12.20;7.43;;;;;;;10.21;65.68;101671.09;5018063;28;20052;-68
2021/10/24 09:53:15;;;;;;;17.20;7.50;;;;;;;10.35;65.31;101668.47;5050782;28;20043;-67
2021/10/24 09:55:55;;;;;;;14.57;7.30;;;;;;;10.56;64.59;101665.25;5052132;28;20057;-68
2021/10/24 09:58:46;;;;;;;11.43;6.53;;;;;;;10.55;64.18;101662.81;5052262;28;20048;-68
2021/10/24 10:01:16;;;;;;;13.75;6.85;;;;;;;10.56;64.43;101659.75;5051144;28;20405;-68
2021/10/24 10:03:48;;;;;;;14.03;6.27;;;;;;;10.79;63.72;101663.66;5042829;28;20049;-69
2021/10/24 10:06:18;;;;;;;13.95;6.32;;;;;;;10.80;63.56;101659.78;5054329;28;20292;-69
2021/10/24 10:08:46;;;;;;;12.45;6.05;;;;;;;10.82;63.46;101649.28;5035901;28;20049;-68
2021/10/24 10:11:23;;;;;;;11.82;5.82;;;;;;;10.81;63.63;101650.41;5051399;28;20056;-69
2021/10/24 10:13:57;;;;;;;12.35;5.75;;;;;;;10.78;63.58;101646.28;5055571;28;20496;-70
2021/10/24 10:16:32;;;;;;;16.55;6.15;;;;;;;10.69;63.87;101653.53;5038926;28;20053;-68
2021/10/24 10:19:03;;;;;;;12.50;6.20;;;;;;;10.84;63.54;101663.59;5050354;28;20416;-68
2021/10/24 10:21:47;;;;;;;11.13;6.03;;;;;;;11.04;63.12;101666.13;5044301;28;20060;-68
2021/10/24 10:24:33;;;;;;;11.40;6.38;;;;;;;10.97;63.89;101674.75;5040190;28;20060;-68
2021/10/24 10:27:26;;;;;;;14.02;6.53;;;;;;;10.91;63.41;101680.59;5057891;28;20056;-68
2021/10/24 10:29:59;;;;;;;10.23;5.78;;;;;;;11.07;63.18;101677.38;5045516;28;20549;-69
2021/10/24 10:32:41;;;;;;;13.93;6.97;;;;;;;11.17;63.26;101669.00;5042872;28;20048;-69
2021/10/24 10:35:09;;;;;;;12.93;6.15;;;;;;;11.51;62.11;101670.75;5046432;28;20056;-67
2021/10/24 10:38:06;;;;;;;12.07;6.20;;;;;;;11.37;62.48;101659.63;5045123;28;20049;-67
2021/10/24 10:40:38;;;;;;;14.13;6.72;;;;;;;11.34;62.37;101669.34;5045401;28;20576;-68
2021/10/24 10:43:18;;;;;;;11.25;5.90;;;;;;;11.38;61.91;101669.56;5045891;28;20049;-68
2021/10/24 10:45:54;;;;;;;12.55;6.57;;;;;;;11.45;62.32;101675.53;5046927;28;20056;-67
2021/10/24 10:48:22;;;;;;;14.55;6.60;;;;;;;11.64;61.90;101667.28;5045252;28;20056;-68
2021/10/24 10:50:54;;;;;;;13.02;7.38;;;;;;;11.68;61.66;101673.88;5047013;28;20045;-68
2021/10/24 10:53:44;;;;;;;12.07;6.45;;;;;;;11.73;61.20;101671.06;5046899;28;20496;-68
2021/10/24 10:56:11;;;;;;;12.88;6.70;;;;;;;11.95;60.88;101666.56;5044974;28;20049;-69
2021/10/24 10:58:41;;;;;;;13.80;6.78;;;;;;;11.84;60.81;101664.25;5050936;28;20060;-69
2021/10/24 11:01:27;;;;;;;11.05;6.47;;;;;;;11.72;60.88;101661.94;5051652;28;20045;-68
2021/10/24 11:04:08;;;;;;;16.63;6.18;;;;;;;11.82;60.78;101656.25;5060560;28;20511;-68
2021/10/24 11:06:38;;;;;;;12.43;6.15;;;;;;;11.89;60.60;101665.00;5056893;28;20057;-69
2021/10/24 11:09:12;;;;;;;;;;;;;;;12.13;60.44;101659.38;5057014;28;20064;-68
2021/10/24 11:11:45;;;;;;;16.95;7.55;;;;;;;12.12;60.00;101663.25;5054140;28;20012;-68
2021/10/24 11:14:15;;;;;;;11.75;6.20;;;;;;;12.15;60.04;101659.91;5055990;28;20068;-69
2021/10/24 11:16:44;;;;;;;21.13;7.75;;;;;;;12.29;60.05;101658.03;5055001;28;20049;-69
2021/10/24 11:22:15;;;;;;;14.82;6.75;;;;;;;12.70;58.74;101653.41;5042319;28;20049;-68
2021/10/24 11:24:45;;;;;;;12.50;6.43;;;;;;;12.47;59.32;101657.13;5059926;28;20056;-69
2021/10/24 11:27:26;;;;;;;14.18;6.10;;;;;;;12.53;59.46;101653.19;5051414;28;20053;-65
2021/10/24 11:29:53;;;;;;;12.35;6.57;;;;;;;12.57;59.08;101650.63;5055043;28;20444;-67
2021/10/24 11:32:35;;;;;;;16.20;6.78;;;;;;;12.12;60.32;101647.50;5053982;28;20063;-71
2021/10/24 11:35:08;;;;;;;12.35;6.07;;;;;;;12.25;60.38;101651.44;5052434;28;20421;-69
2021/10/24 11:37:47;;;;;;;11.75;7.00;;;;;;;12.33;60.08;101648.81;5055397;28;20045;-68
2021/10/24 11:40:17;;;;;;;11.77;5.88;;;;;;;12.55;59.69;101645.41;5059988;28;20063;-71
2021/10/24 11:43:07;;;;;;;14.40;5.65;;;;;;;12.21;60.45;101645.72;5037930;28;20056;-69
2021/10/24 11:45:37;;;;;;;;;;;;;;;12.34;60.77;101636.63;5048353;28;20075;-69
2021/10/24 11:48:09;;;;;;;13.98;6.22;;;;;;;12.53;60.32;101631.06;5070218;28;19931;-69
2021/10/24 11:50:50;;;;;;;12.35;7.18;;;;;;;12.76;59.81;101634.78;5055781;28;20052;-69